createdAt,value
2023-02-02T00:01:05.864Z,15.6
2023-02-02T00:11:05.970Z,15.5
2023-02-02T00:21:05.860Z,15.5
2023-02-02T00:31:05.933Z,15.5
2023-02-02T00:41:05.887Z,15.4
2023-02-02T00:51:05.996Z,15.3
2023-02-02T01:01:05.885Z,15.2
2023-02-02T01:11:05.940Z,15.3
2023-02-02T01:21:06.076Z,15.2
2023-02-02T01:31:05.967Z,15.2
2023-02-02T01:41:06.032Z,15.2
2023-02-02T01:51:05.913Z,15.1
2023-02-02T02:01:06.077Z,15.1
2023-02-02T02:11:05.888Z,15.1
2023-02-02T02:21:06.015Z,15
2023-02-02T02:31:06.182Z,14.9
2023-02-02T02:41:06.042Z,15
2023-02-02T02:51:06.106Z,15
2023-02-02T03:01:06.015Z,15
2023-02-02T03:11:06.115Z,15
2023-02-02T03:21:06.050Z,14.9
2023-02-02T03:31:06.184Z,14.9
2023-02-02T03:41:06.017Z,14.9
2023-02-02T03:51:06.118Z,14.8
2023-02-02T04:01:06.019Z,14.8
2023-02-02T04:11:06.123Z,14.8
2023-02-02T04:21:06.230Z,14.8
2023-02-02T04:31:06.206Z,14.8
2023-02-02T04:41:06.223Z,14.8
2023-02-02T04:51:06.112Z,14.8
2023-02-02T05:01:06.296Z,14.7
2023-02-02T05:11:06.083Z,16.5
2023-02-02T05:21:06.222Z,17
2023-02-02T05:31:06.423Z,16.6
2023-02-02T05:41:06.207Z,16.2
2023-02-02T05:51:06.268Z,15.9
2023-02-02T06:01:06.214Z,15.8
2023-02-02T06:11:06.285Z,17.6
2023-02-02T06:21:06.200Z,17.4
2023-02-02T06:31:06.401Z,16.9
2023-02-02T06:41:06.311Z,16.5
2023-02-02T06:51:06.262Z,16.2
2023-02-02T07:01:06.533Z,16
2023-02-02T07:11:08.528Z,16
2023-02-02T07:21:06.374Z,18.1
2023-02-02T07:31:06.343Z,17.6
2023-02-02T07:41:06.381Z,17.1
2023-02-02T07:51:06.263Z,16.8
2023-02-02T08:01:06.499Z,16.5
2023-02-02T08:11:06.278Z,16.2
2023-02-02T08:21:06.430Z,17.8
2023-02-02T08:31:06.359Z,17.9
2023-02-02T08:41:06.404Z,17.5
2023-02-02T08:51:06.482Z,17
2023-02-02T09:01:06.477Z,16.7
2023-02-02T09:11:06.492Z,16.4
2023-02-02T09:21:06.412Z,16.3
2023-02-02T09:31:06.574Z,16.1
2023-02-02T09:41:07.733Z,16
2023-02-02T09:51:06.488Z,15.9
2023-02-02T10:01:06.517Z,15.8
2023-02-02T10:11:06.505Z,16
2023-02-02T10:21:06.413Z,15.9
2023-02-02T10:31:06.566Z,15.8
2023-02-02T10:41:06.616Z,15.8
2023-02-02T10:51:06.500Z,15.7
2023-02-02T11:01:06.638Z,15.8
2023-02-02T11:11:06.478Z,15.8
2023-02-02T11:21:06.589Z,15.9
2023-02-02T11:31:06.657Z,15.9
2023-02-02T11:41:06.644Z,15.8
2023-02-02T11:51:06.587Z,15.8
2023-02-02T12:01:06.653Z,15.7
2023-02-02T12:11:06.483Z,15.8
2023-02-02T12:21:06.591Z,15.8
2023-02-02T12:31:06.727Z,15.9
2023-02-02T12:41:06.626Z,15.8
2023-02-02T12:51:06.693Z,15.8
2023-02-02T13:01:06.638Z,15.8
2023-02-02T13:11:06.655Z,15.7
2023-02-02T13:21:06.585Z,15.6
2023-02-02T13:31:06.773Z,15.6
2023-02-02T13:41:06.781Z,15.6
2023-02-02T13:51:06.664Z,15.6
2023-02-02T14:01:06.800Z,15.7
2023-02-02T14:11:06.651Z,15.6
2023-02-02T14:21:06.779Z,15.6
2023-02-02T14:31:06.747Z,15.6
2023-02-02T14:41:06.759Z,15.5
2023-02-02T14:51:06.836Z,15.5
2023-02-02T15:01:06.781Z,15.4
2023-02-02T15:11:06.837Z,15.4
2023-02-02T15:21:06.770Z,15.4
2023-02-02T15:31:06.976Z,15.4
2023-02-02T15:41:06.736Z,15.4
2023-02-02T15:51:06.836Z,15.3
2023-02-02T16:01:06.827Z,15.3
2023-02-02T16:11:06.843Z,15.4
2023-02-02T16:21:06.803Z,17.6
2023-02-02T16:31:06.960Z,17.3
2023-02-02T16:41:06.813Z,16.9
2023-02-02T16:51:06.915Z,16.6
2023-02-02T17:01:15.305Z,16.4
2023-02-02T17:11:06.988Z,16.1
2023-02-02T17:21:06.923Z,16
2023-02-02T17:31:07.120Z,16.4
2023-02-02T17:41:06.887Z,18.1
2023-02-02T17:51:06.964Z,17.7
2023-02-02T18:01:06.970Z,17.2
2023-02-02T18:11:06.990Z,16.9
2023-02-02T18:21:07.103Z,16.6
2023-02-02T18:31:07.070Z,16.7
2023-02-02T18:41:07.068Z,16.7
2023-02-02T18:51:06.952Z,18.6
2023-02-02T19:01:07.409Z,18.1
2023-02-02T19:11:06.941Z,17.8
2023-02-02T19:21:07.064Z,17.2
2023-02-02T19:31:07.207Z,17
2023-02-02T19:41:07.596Z,16.7
2023-02-02T19:51:07.171Z,16.6
2023-02-02T20:01:07.138Z,16.4
2023-02-02T20:11:07.127Z,16.3
2023-02-02T20:21:07.054Z,16.2
2023-02-02T20:31:07.149Z,18.2
2023-02-02T20:41:07.053Z,18.2
2023-02-02T20:51:07.130Z,17.7
2023-02-02T21:01:07.305Z,17.4
2023-02-02T21:11:07.108Z,17.1
2023-02-02T21:21:07.329Z,16.8
2023-02-02T21:31:07.265Z,16.6
2023-02-02T21:41:07.255Z,16.5
2023-02-02T21:51:07.105Z,16.4
2023-02-02T22:01:07.251Z,16.3
2023-02-02T22:11:07.127Z,16.3
2023-02-02T22:21:07.255Z,16.2
2023-02-02T22:31:07.445Z,16.1
2023-02-02T22:41:07.255Z,16.1
2023-02-02T22:51:07.298Z,16.1
2023-02-02T23:01:07.229Z,16.1
2023-02-02T23:11:07.315Z,16
2023-02-02T23:21:07.251Z,15.9
2023-02-02T23:31:07.450Z,16
2023-02-02T23:41:07.398Z,16.1
2023-02-02T23:51:07.299Z,15.8
